Main page
METAR-TAF:

METAR-TAF

Airports :

Žilina, Slovakia

Žilina Airport

latitude: 49-14N, longitude: 018-36-49E, elevation: 312 m

Current weather observation

The report was made 39 minutes ago, at 15:30 UTC
Wind 1 kt from the West/Northwest
Temperature 20°C
Humidity 64%
Pressure 1025 hPa
Visibility 10 km or more
Few clouds at a height of 5500 ft

METAR: LZZI 261530Z 29001KT 9999 FEW055 20/13 Q1025

Time: 18:09 (16:09 UTC)

Forecast

The report was made 2 hours and 9 minutes ago, at 14:00 UTC
Forecast valid from 26 at 15 UTC to 27 at 00 UTC
Wind 2 kt from variable directions
Visibility 10 km or more
no clouds below 1500 m and no cumulonimbus
Becoming
from 26 at 19 UTC to 26 at 21 UTC
Visibility: 4000 m
Few clouds at a height of 1200 ft
mist

TAF: LZZI 261400Z 2615/2700 VRB02KT CAVOK BECMG 2619/2621 4000 BR FEW012

Weather observations and forecasts of more than 4000 airports (METAR and TAF reports).

The available stations are represented by yellow and red dots on the map.

Hover mouse over dot to see the name of the station.

Then click to see weather observations and forecasts.

To change the map : click on the green buttons with a black cross to zoom in, on the green button with a dash to zoom out, or on the green arrows for adjacent maps.


METAR-TAF: